Terminal Aerodrome Forecast
Issued by NWS

Home | Current Version | Previous Version | Graphics & Text | Print | Product List | Glossary On
Versions: 1 2 3 4 5 6 7 8 9 10 11 12 13 14 15 16 17 18 19 20 21 22 23 24 25 26 27 28 29 30 31
000
FTUS43 KGRB 221100
TAFRHI
TAF
KRHI 221122Z 2212/2312 30009KT P6SM -SHSN SCT012 BKN025
      TEMPO 2212/2216 2SM -SHSN BKN012
     FM221600 30011G18KT P6SM -SHSN BKN035 OVC060
      TEMPO 2216/2220 2SM -SHSN BKN025
     FM230200 30005KT P6SM -SHSN BKN025 OVC050=

USA.gov is the U.S. government's official web portal to all federal, state and local government web resources and services.